Time;durP1;ratioP1;P1;durP2;ratioP2;P2;SDS_P1;SDS_P2;PMS_P1;PMS_P2;Temp;Humidity;BMP_temperature;BMP_pressure;BME280_temperature;BME280_humidity;BME280_pressure;Samples;Min_cycle;Max_cycle;Signal;HPM_P1;HPM_P2
2023/12/20 00:01:35;;;;;;;;;;;19.40;60.70;;;;;;5057204;28;19924;-59
2023/12/20 00:04:01;;;;;;;;;;;19.40;60.60;;;;;;5043392;28;19928;-59
2023/12/20 00:06:26;;;;;;;;;;;19.40;60.60;;;;;;5054805;28;19972;-59
2023/12/20 00:08:52;;;;;;;;;;;19.40;60.70;;;;;;5054722;28;19939;-59
2023/12/20 00:11:17;;;;;;;;;;;19.40;60.60;;;;;;5055260;28;20701;-59
2023/12/20 00:13:43;;;;;;;;;;;19.40;60.60;;;;;;5076759;28;19924;-59
2023/12/20 00:16:09;;;;;;;;;;;19.40;60.60;;;;;;5075316;28;19924;-59
2023/12/20 00:18:34;;;;;;;;;;;19.30;61.20;;;;;;5056315;28;19928;-59
2023/12/20 00:21:00;;;;;;;;;;;19.30;60.60;;;;;;5056421;28;19994;-59
2023/12/20 00:23:25;;;;;;;;;;;19.30;60.60;;;;;;5073085;28;19924;-59
2023/12/20 00:25:50;;;;;;;;;;;19.30;60.60;;;;;;5073687;28;20407;-59
2023/12/20 00:28:16;;;;;;;;;;;19.30;60.50;;;;;;5056561;28;19924;-60
2023/12/20 00:30:42;;;;;;;;;;;19.30;60.60;;;;;;5074173;28;19924;-60
2023/12/20 00:33:07;;;;;;;;;;;19.30;60.50;;;;;;5072807;28;19967;-60
2023/12/20 00:35:33;;;;;;;;;;;19.30;60.50;;;;;;5070982;28;19931;-60
2023/12/20 00:37:58;;;;;;;;;;;19.30;60.60;;;;;;5053714;28;20320;-60
2023/12/20 00:40:24;;;;;;;;;;;19.30;60.50;;;;;;5035586;28;19928;-59
2023/12/20 00:42:49;;;;;;;;;;;19.30;60.50;;;;;;5036456;28;20024;-60
2023/12/20 00:45:15;;;;;;;;;;;19.20;60.40;;;;;;5068486;28;19925;-60
2023/12/20 00:47:40;;;;;;;;;;;19.20;60.40;;;;;;5054493;28;20402;-59
2023/12/20 00:50:06;;;;;;;;;;;19.20;60.40;;;;;;5036047;28;19936;-60
2023/12/20 00:52:31;;;;;;;;;;;19.20;60.40;;;;;;5036293;28;19948;-60
2023/12/20 00:54:57;;;;;;;;;;;19.20;60.40;;;;;;5035468;28;19925;-60
2023/12/20 00:57:23;;;;;;;;;;;19.20;60.30;;;;;;5044933;28;20356;-60
2023/12/20 00:59:48;;;;;;;;;;;19.20;60.30;;;;;;5073905;28;19967;-60
2023/12/20 01:02:14;;;;;;;;;;;19.20;60.30;;;;;;5072967;28;19925;-59
2023/12/20 01:04:39;;;;;;;;;;;19.20;60.30;;;;;;5073535;28;19925;-60
2023/12/20 01:07:05;;;;;;;;;;;19.20;60.30;;;;;;5073444;28;19931;-60
2023/12/20 01:09:30;;;;;;;;;;;19.20;60.30;;;;;;5072739;28;19931;-60
2023/12/20 01:11:56;;;;;;;;;;;19.20;60.30;;;;;;5042999;28;20352;-60
2023/12/20 01:14:21;;;;;;;;;;;19.10;60.20;;;;;;5034520;28;19932;-60
2023/12/20 01:16:47;;;;;;;;;;;19.10;60.20;;;;;;5036106;28;19931;-59
2023/12/20 01:19:13;;;;;;;;;;;19.10;60.20;;;;;;5035803;28;20381;-60
2023/12/20 01:21:39;;;;;;;;;;;19.10;60.20;;;;;;5035778;28;20625;-60
2023/12/20 01:24:04;;;;;;;;;;;19.10;60.20;;;;;;5035901;28;21013;-61
2023/12/20 01:26:30;;;;;;;;;;;19.10;60.20;;;;;;5053275;28;19926;-60
2023/12/20 01:28:55;;;;;;;;;;;19.10;60.10;;;;;;5052394;28;20015;-60
2023/12/20 01:31:21;;;;;;;;;;;19.10;60.10;;;;;;5035903;28;19925;-60
2023/12/20 01:33:46;;;;;;;;;;;19.10;60.10;;;;;;5035639;28;19932;-59
2023/12/20 01:36:12;;;;;;;;;;;19.10;60.00;;;;;;5034504;28;20031;-59
2023/12/20 01:38:37;;;;;;;;;;;19.10;60.10;;;;;;5053260;28;19971;-59
2023/12/20 01:41:03;;;;;;;;;;;19.00;60.00;;;;;;5052757;28;19925;-60
2023/12/20 01:43:29;;;;;;;;;;;19.00;60.00;;;;;;5067678;28;19960;-59
2023/12/20 01:45:55;;;;;;;;;;;19.00;60.00;;;;;;5058689;28;20319;-60
2023/12/20 01:48:21;;;;;;;;;;;19.00;60.00;;;;;;5044974;28;19931;-60
2023/12/20 01:50:46;;;;;;;;;;;19.00;60.00;;;;;;5054367;28;19925;-59
2023/12/20 01:53:12;;;;;;;;;;;19.10;60.10;;;;;;5038542;28;19936;-60
2023/12/20 01:55:40;;;;;;;;;;;19.00;60.00;;;;;;5072986;28;19924;-59
2023/12/20 01:58:06;;;;;;;;;;;19.00;60.00;;;;;;5040061;28;19924;-60
2023/12/20 02:00:32;;;;;;;;;;;19.00;60.10;;;;;;5066204;28;20269;-60
2023/12/20 02:02:58;;;;;;;;;;;19.00;60.00;;;;;;5037444;28;20467;-60
2023/12/20 02:05:24;;;;;;;;;;;19.00;60.00;;;;;;5023680;28;19929;-60
2023/12/20 02:07:49;;;;;;;;;;;19.00;60.00;;;;;;5035171;28;19968;-60
2023/12/20 02:10:15;;;;;;;;;;;19.00;60.00;;;;;;5052631;28;19931;-59
2023/12/20 02:12:40;;;;;;;;;;;19.00;60.00;;;;;;5034152;28;19929;-60
2023/12/20 02:15:06;;;;;;;;;;;18.90;60.00;;;;;;5052853;28;19924;-60
2023/12/20 02:17:32;;;;;;;;;;;18.90;60.00;;;;;;5019048;28;20027;-60
2023/12/20 02:19:57;;;;;;;;;;;19.00;60.00;;;;;;5017956;28;20428;-60
2023/12/20 02:22:23;;;;;;;;;;;18.90;60.00;;;;;;5053024;28;20866;-60
2023/12/20 02:24:48;;;;;;;;;;;19.00;60.00;;;;;;5070794;28;20360;-60
2023/12/20 02:27:14;;;;;;;;;;;18.90;59.90;;;;;;5075599;28;19934;-59
2023/12/20 02:29:39;;;;;;;;;;;18.90;59.90;;;;;;5058876;28;19986;-59
2023/12/20 02:32:05;;;;;;;;;;;18.90;59.90;;;;;;5076107;28;19931;-60
2023/12/20 02:34:31;;;;;;;;;;;18.90;59.90;;;;;;5076578;28;20334;-60
2023/12/20 02:36:56;;;;;;;;;;;18.90;59.90;;;;;;5058115;28;19968;-60
2023/12/20 02:39:22;;;;;;;;;;;18.90;60.00;;;;;;5053487;28;20267;-60
2023/12/20 02:41:48;;;;;;;;;;;18.90;59.90;;;;;;5076562;28;19978;-60
2023/12/20 02:44:13;;;;;;;;;;;18.90;59.80;;;;;;5075917;28;19994;-59
2023/12/20 02:46:39;;;;;;;;;;;18.80;59.70;;;;;;5059857;28;20024;-61
2023/12/20 02:49:05;;;;;;;;;;;18.90;59.90;;;;;;5038383;28;19964;-60
2023/12/20 02:51:31;;;;;;;;;;;18.90;59.80;;;;;;5038540;28;19925;-60
2023/12/20 02:53:56;;;;;;;;;;;18.80;59.70;;;;;;5055707;28;20379;-59
2023/12/20 02:56:22;;;;;;;;;;;18.90;59.80;;;;;;5038759;28;19979;-59
2023/12/20 02:58:47;;;;;;;;;;;18.90;59.80;;;;;;5056409;28;19921;-59
2023/12/20 03:01:12;;;;;;;;;;;18.90;59.80;;;;;;5046687;28;20013;-59
2023/12/20 03:03:38;;;;;;;;;;;18.90;59.80;;;;;;5075993;28;19928;-59
2023/12/20 03:06:03;;;;;;;;;;;18.90;59.70;;;;;;5074555;28;19929;-59
2023/12/20 03:08:29;;;;;;;;;;;18.90;59.80;;;;;;5057225;28;19925;-59
2023/12/20 03:10:54;;;;;;;;;;;18.90;59.70;;;;;;5066189;28;20012;-59
2023/12/20 03:13:20;;;;;;;;;;;18.90;59.70;;;;;;5068005;28;20011;-59
2023/12/20 03:15:45;;;;;;;;;;;18.90;59.60;;;;;;5054993;28;19931;-59
2023/12/20 03:18:11;;;;;;;;;;;18.90;59.60;;;;;;5068080;28;19924;-59
2023/12/20 03:20:37;;;;;;;;;;;18.90;59.60;;;;;;5057285;28;19998;-59
2023/12/20 03:23:02;;;;;;;;;;;18.90;59.60;;;;;;5074801;28;20017;-59
2023/12/20 03:25:28;;;;;;;;;;;18.90;59.60;;;;;;5057683;28;19978;-60
2023/12/20 03:27:53;;;;;;;;;;;18.90;59.60;;;;;;5074913;28;19924;-59
2023/12/20 03:30:19;;;;;;;;;;;18.90;59.60;;;;;;5074381;28;19978;-59
2023/12/20 03:32:45;;;;;;;;;;;18.90;59.50;;;;;;5075016;28;20349;-58
2023/12/20 03:35:10;;;;;;;;;;;18.90;59.50;;;;;;5055786;28;19925;-59
2023/12/20 03:37:36;;;;;;;;;;;18.90;59.40;;;;;;5045166;28;19979;-59
2023/12/20 03:40:01;;;;;;;;;;;18.90;59.40;;;;;;5058015;28;19928;-58
2023/12/20 03:42:27;;;;;;;;;;;18.90;59.40;;;;;;5037202;28;20015;-59
2023/12/20 03:44:52;;;;;;;;;;;19.00;59.40;;;;;;5055121;28;19931;-59
2023/12/20 03:47:18;;;;;;;;;;;19.00;59.40;;;;;;5055381;28;20015;-59
2023/12/20 03:49:43;;;;;;;;;;;19.00;59.40;;;;;;5073059;28;19932;-59
2023/12/20 03:52:09;;;;;;;;;;;19.00;60.00;;;;;;5055271;28;19924;-59
2023/12/20 03:54:37;;;;;;;;;;;19.10;59.40;;;;;;5075326;28;19983;-59
2023/12/20 03:57:03;;;;;;;;;;;19.00;59.30;;;;;;5056156;28;19925;-59
2023/12/20 03:59:28;;;;;;;;;;;19.00;59.30;;;;;;5075296;28;19993;-59
2023/12/20 04:01:54;;;;;;;;;;;19.10;59.30;;;;;;5057173;28;19928;-59
2023/12/20 04:04:19;;;;;;;;;;;19.10;59.30;;;;;;5074417;28;20402;-59
2023/12/20 04:06:45;;;;;;;;;;;19.10;59.20;;;;;;5075330;28;19924;-59
2023/12/20 04:09:10;;;;;;;;;;;19.10;59.20;;;;;;5052523;28;20852;-59
2023/12/20 04:11:36;;;;;;;;;;;19.10;59.20;;;;;;5036083;28;19932;-59
2023/12/20 04:14:01;;;;;;;;;;;19.10;59.20;;;;;;5054776;28;19925;-59
2023/12/20 04:16:27;;;;;;;;;;;19.20;59.20;;;;;;5054939;28;19921;-59
2023/12/20 04:18:52;;;;;;;;;;;19.20;59.80;;;;;;5035942;28;19964;-59
2023/12/20 04:21:18;;;;;;;;;;;19.20;59.20;;;;;;5053845;28;19924;-59
2023/12/20 04:23:43;;;;;;;;;;;19.20;59.10;;;;;;5074629;28;20402;-59
2023/12/20 04:26:09;;;;;;;;;;;19.20;59.10;;;;;;5073457;28;19960;-59
2023/12/20 04:28:34;;;;;;;;;;;19.30;59.10;;;;;;5074474;28;20018;-59
2023/12/20 04:31:00;;;;;;;;;;;19.30;59.10;;;;;;5056530;28;19924;-59
2023/12/20 04:33:25;;;;;;;;;;;19.30;59.10;;;;;;5072919;28;20032;-59
2023/12/20 04:35:51;;;;;;;;;;;19.30;59.10;;;;;;5055949;28;19920;-59
2023/12/20 04:38:16;;;;;;;;;;;19.30;59.10;;;;;;5034949;28;19986;-60
2023/12/20 04:40:42;;;;;;;;;;;19.30;59.00;;;;;;5040411;28;19928;-59
2023/12/20 04:43:08;;;;;;;;;;;19.30;59.00;;;;;;5074058;28;19966;-59
2023/12/20 04:45:34;;;;;;;;;;;19.40;59.10;;;;;;5055618;28;19989;-59
2023/12/20 04:47:59;;;;;;;;;;;19.40;59.00;;;;;;5049208;28;19929;-59
2023/12/20 04:50:25;;;;;;;;;;;19.40;59.00;;;;;;5053939;28;19932;-59
2023/12/20 04:52:50;;;;;;;;;;;19.40;59.00;;;;;;5035346;28;19925;-59
2023/12/20 04:55:16;;;;;;;;;;;19.40;58.90;;;;;;5060991;28;19931;-59
2023/12/20 04:57:42;;;;;;;;;;;19.40;58.90;;;;;;5073536;28;20333;-59
2023/12/20 05:00:08;;;;;;;;;;;19.40;58.90;;;;;;5054515;28;19924;-59
2023/12/20 05:02:34;;;;;;;;;;;19.50;58.90;;;;;;5060252;28;19925;-59
2023/12/20 05:05:00;;;;;;;;;;;19.50;58.90;;;;;;5053213;28;19974;-59
2023/12/20 05:07:25;;;;;;;;;;;19.50;58.90;;;;;;5063847;28;19932;-60
2023/12/20 05:09:51;;;;;;;;;;;19.50;58.80;;;;;;5043014;28;19986;-59
2023/12/20 05:12:16;;;;;;;;;;;19.50;58.80;;;;;;5073238;28;19924;-59
2023/12/20 05:14:42;;;;;;;;;;;19.50;58.80;;;;;;5054868;28;20021;-59
2023/12/20 05:17:07;;;;;;;;;;;19.50;58.70;;;;;;5073256;28;19924;-59
2023/12/20 05:19:35;;;;;;;;;;;19.50;58.70;;;;;;5073369;28;19936;-59
2023/12/20 05:22:01;;;;;;;;;;;19.50;58.70;;;;;;5067412;28;19924;-60
2023/12/20 05:24:26;;;;;;;;;;;19.50;58.70;;;;;;5053072;28;19970;-59
2023/12/20 05:26:52;;;;;;;;;;;19.50;58.70;;;;;;5064444;28;19924;-59
2023/12/20 05:29:17;;;;;;;;;;;19.50;58.50;;;;;;5072316;28;19930;-59
2023/12/20 05:31:43;;;;;;;;;;;19.50;58.60;;;;;;5055485;28;20384;-59
2023/12/20 05:34:08;;;;;;;;;;;19.50;58.50;;;;;;5073048;28;19966;-59
2023/12/20 05:36:37;;;;;;;;;;;19.60;58.60;;;;;;5062796;28;19976;-59
2023/12/20 05:39:07;;;;;;;;;;;19.60;58.60;;;;;;5049375;28;19978;-59
2023/12/20 05:41:33;;;;;;;;;;;19.60;58.50;;;;;;5072704;28;19931;-59
2023/12/20 05:43:59;;;;;;;;;;;19.60;58.50;;;;;;5073091;28;19924;-59
2023/12/20 05:46:24;;;;;;;;;;;19.60;58.50;;;;;;5061486;28;19928;-59
2023/12/20 05:48:51;;;;;;;;;;;19.60;58.50;;;;;;5060381;28;19967;-59
2023/12/20 05:51:17;;;;;;;;;;;19.60;58.50;;;;;;5035074;28;19932;-59
2023/12/20 05:53:42;;;;;;;;;;;19.60;58.50;;;;;;5053333;28;19925;-59
2023/12/20 05:56:08;;;;;;;;;;;19.60;58.50;;;;;;5071661;28;20403;-59
2023/12/20 05:58:33;;;;;;;;;;;19.60;58.40;;;;;;5072228;28;19999;-59
2023/12/20 06:00:59;;;;;;;;;;;19.60;58.40;;;;;;5038388;28;20296;-59
2023/12/20 06:03:24;;;;;;;;;;;19.70;58.40;;;;;;5036769;28;19957;-59
2023/12/20 06:05:50;;;;;;;;;;;19.60;58.40;;;;;;5068547;28;19924;-59
2023/12/20 06:08:15;;;;;;;;;;;19.70;58.40;;;;;;5075952;28;19928;-59
2023/12/20 06:10:41;;;;;;;;;;;19.70;58.40;;;;;;5038073;28;19929;-59
2023/12/20 06:13:06;;;;;;;;;;;19.70;58.40;;;;;;5051960;28;19979;-59
2023/12/20 06:15:35;;;;;;;;;;;19.70;58.40;;;;;;5045723;28;20015;-59
2023/12/20 06:18:00;;;;;;;;;;;19.70;58.40;;;;;;5091694;28;19924;-59
2023/12/20 06:20:26;;;;;;;;;;;19.70;58.30;;;;;;5093179;28;19931;-59
2023/12/20 06:22:51;;;;;;;;;;;19.70;58.40;;;;;;5092829;28;20379;-59
2023/12/20 06:25:17;;;;;;;;;;;19.70;58.30;;;;;;5081278;28;19925;-59
2023/12/20 06:27:42;;;;;;;;;;;19.70;58.30;;;;;;5073036;28;20383;-60
2023/12/20 06:30:11;;;;;;;;;;;19.70;58.30;;;;;;5072185;28;20007;-59
2023/12/20 06:32:37;;;;;;;;;;;19.70;58.30;;;;;;5054071;28;19924;-59
2023/12/20 06:35:04;;;;;;;;;;;19.70;58.30;;;;;;5072289;28;19928;-59
2023/12/20 06:37:30;;;;;;;;;;;19.70;58.30;;;;;;5072830;28;19924;-59
2023/12/20 06:39:56;;;;;;;;;;;19.70;58.30;;;;;;5064719;28;20466;-59
2023/12/20 06:42:22;;;;;;;;;;;19.70;58.30;;;;;;5073499;28;19924;-59
2023/12/20 06:44:47;;;;;;;;;;;19.80;58.30;;;;;;5050850;28;20296;-57
2023/12/20 06:47:14;;;;;;;;;;;19.70;59.00;;;;;;5033173;28;19928;-58
2023/12/20 06:49:39;;;;;;;;;;;19.80;58.50;;;;;;5057301;28;19971;-59
2023/12/20 06:52:05;;;;;;;;;;;19.80;58.50;;;;;;5060843;28;20303;-58
2023/12/20 06:54:31;;;;;;;;;;;19.80;58.50;;;;;;5060749;28;19946;-58
2023/12/20 06:56:56;;;;;;;;;;;19.80;58.50;;;;;;5066073;28;19925;-58
2023/12/20 06:59:22;;;;;;;;;;;19.80;58.60;;;;;;5071642;28;19925;-58
2023/12/20 07:01:48;;;;;;;;;;;19.80;58.60;;;;;;5054393;28;20008;-58
2023/12/20 07:04:13;;;;;;;;;;;19.80;58.70;;;;;;5054243;28;19924;-58
2023/12/20 07:06:39;;;;;;;;;;;19.80;58.70;;;;;;5071848;28;20364;-58
2023/12/20 07:09:04;;;;;;;;;;;19.80;58.80;;;;;;5071750;28;19982;-57
2023/12/20 07:11:29;;;;;;;;;;;19.90;58.70;;;;;;5071455;28;20388;-57
2023/12/20 07:13:55;;;;;;;;;;;19.90;58.80;;;;;;5056873;28;19924;-57
2023/12/20 07:16:20;;;;;;;;;;;19.90;58.80;;;;;;5075633;28;19968;-58
2023/12/20 07:18:46;;;;;;;;;;;19.90;58.90;;;;;;5076178;28;20295;-58
2023/12/20 07:21:12;;;;;;;;;;;19.90;58.80;;;;;;5074874;28;20470;-58
2023/12/20 07:23:37;;;;;;;;;;;19.90;58.90;;;;;;5075528;28;20038;-58
2023/12/20 07:26:04;;;;;;;;;;;19.90;59.00;;;;;;5057611;28;19925;-58
2023/12/20 07:28:29;;;;;;;;;;;19.90;59.00;;;;;;5056701;28;20326;-58
2023/12/20 07:30:55;;;;;;;;;;;19.90;59.00;;;;;;5075280;28;20368;-59
2023/12/20 07:33:20;;;;;;;;;;;19.90;59.10;;;;;;5057957;28;19932;-59
2023/12/20 07:35:45;;;;;;;;;;;20.00;59.20;;;;;;5057054;28;20463;-59
2023/12/20 07:38:12;;;;;;;;;;;19.90;59.10;;;;;;5075280;28;19929;-57
2023/12/20 07:40:38;;;;;;;;;;;20.00;59.20;;;;;;5041256;28;19921;-59
2023/12/20 07:43:04;;;;;;;;;;;20.00;59.20;;;;;;5044086;28;19924;-58
2023/12/20 07:45:29;;;;;;;;;;;20.00;59.10;;;;;;5057687;28;20369;-59
2023/12/20 07:47:55;;;;;;;;;;;20.00;59.00;;;;;;5057352;28;19932;-59
2023/12/20 07:50:20;;;;;;;;;;;20.00;59.10;;;;;;5074269;28;20359;-59
2023/12/20 07:52:46;;;;;;;;;;;20.00;59.10;;;;;;5075349;28;19924;-58
2023/12/20 07:55:11;;;;;;;;;;;20.00;59.10;;;;;;5055501;28;20447;-58
2023/12/20 07:57:37;;;;;;;;;;;20.00;59.10;;;;;;5074984;28;19924;-58
2023/12/20 08:00:03;;;;;;;;;;;20.00;59.00;;;;;;5074880;28;19936;-58
2023/12/20 08:02:29;;;;;;;;;;;20.00;59.10;;;;;;5056065;28;19924;-58
2023/12/20 08:04:54;;;;;;;;;;;20.00;59.00;;;;;;5062118;28;19982;-58
2023/12/20 08:07:20;;;;;;;;;;;20.00;59.00;;;;;;5037056;28;20011;-59
2023/12/20 08:09:45;;;;;;;;;;;20.00;59.00;;;;;;5053884;28;19971;-59
2023/12/20 08:12:11;;;;;;;;;;;20.00;59.50;;;;;;5053323;28;19946;-58
2023/12/20 08:14:37;;;;;;;;;;;20.00;58.80;;;;;;5074226;28;19924;-58
2023/12/20 08:17:02;;;;;;;;;;;20.00;58.80;;;;;;5055015;28;19978;-58
2023/12/20 08:19:28;;;;;;;;;;;20.00;58.70;;;;;;5073792;28;19932;-58
2023/12/20 08:21:53;;;;;;;;;;;20.00;58.60;;;;;;5042690;28;19932;-57
2023/12/20 08:24:19;;;;;;;;;;;20.00;58.70;;;;;;5055107;28;19936;-57
2023/12/20 08:26:46;;;;;;;;;;;20.00;58.80;;;;;;5049272;28;19928;-58
2023/12/20 08:29:13;;;;;;;;;;;20.00;58.70;;;;;;5061133;28;20066;-59
2023/12/20 08:31:41;;;;;;;;;;;20.00;58.90;;;;;;5062551;28;20314;-59
2023/12/20 08:34:06;;;;;;;;;;;20.00;58.90;;;;;;5062607;28;19928;-60
2023/12/20 08:36:32;;;;;;;;;;;20.00;58.90;;;;;;5062833;28;20280;-58
2023/12/20 08:38:57;;;;;;;;;;;20.00;58.70;;;;;;5061982;28;19992;-59
2023/12/20 08:41:23;;;;;;;;;;;20.00;58.50;;;;;;5044430;28;19924;-58
2023/12/20 08:43:48;;;;;;;;;;;20.00;58.50;;;;;;5044580;28;19925;-59
2023/12/20 08:46:14;;;;;;;;;;;20.00;58.30;;;;;;5052477;28;19924;-59
2023/12/20 08:48:40;;;;;;;;;;;20.00;58.30;;;;;;5054010;28;19970;-59
2023/12/20 08:51:08;;;;;;;;;;;20.00;58.30;;;;;;5053854;28;20028;-59
2023/12/20 08:53:33;;;;;;;;;;;20.00;58.20;;;;;;5053354;28;19925;-59
2023/12/20 08:56:01;;;;;;;;;;;20.00;58.20;;;;;;5053675;28;20399;-58
2023/12/20 08:58:26;;;;;;;;;;;20.00;58.20;;;;;;5052966;28;20061;-59
2023/12/20 09:00:52;;;;;;;;;;;20.00;58.10;;;;;;5073628;28;20423;-59
2023/12/20 09:03:17;;;;;;;;;;;20.00;58.00;;;;;;5073956;28;19931;-59
2023/12/20 09:05:43;;;;;;;;;;;20.00;58.00;;;;;;5055195;28;19928;-58
2023/12/20 09:08:10;;;;;;;;;;;20.00;58.00;;;;;;5073672;28;19966;-59
2023/12/20 09:10:36;;;;;;;;;;;20.00;58.00;;;;;;5073609;28;20368;-59
2023/12/20 09:13:02;;;;;;;;;;;20.00;58.00;;;;;;5066051;28;19978;-59
2023/12/20 09:15:28;;;;;;;;;;;20.00;58.10;;;;;;5053950;28;19925;-59
2023/12/20 09:17:54;;;;;;;;;;;20.00;58.10;;;;;;5053370;28;19925;-60
2023/12/20 09:20:19;;;;;;;;;;;20.00;58.10;;;;;;5052786;28;20011;-59
2023/12/20 09:22:45;;;;;;;;;;;20.00;58.10;;;;;;5072923;28;19935;-59
2023/12/20 09:25:11;;;;;;;;;;;20.00;58.10;;;;;;5073332;28;19938;-59
2023/12/20 09:27:36;;;;;;;;;;;20.00;58.00;;;;;;5072847;28;19924;-59
2023/12/20 09:30:02;;;;;;;;;;;20.00;58.10;;;;;;5055185;28;20007;-59
2023/12/20 09:32:29;;;;;;;;;;;20.00;58.10;;;;;;5066773;28;19925;-59
2023/12/20 09:34:55;;;;;;;;;;;20.00;58.00;;;;;;5034294;28;19955;-59
2023/12/20 09:37:20;;;;;;;;;;;20.00;58.00;;;;;;5053478;28;19931;-59
2023/12/20 09:39:45;;;;;;;;;;;20.00;57.90;;;;;;5035608;28;19971;-59
2023/12/20 09:42:11;;;;;;;;;;;20.00;57.90;;;;;;5052358;28;19994;-60
2023/12/20 09:44:37;;;;;;;;;;;20.00;57.90;;;;;;5053029;28;19925;-60
2023/12/20 09:47:03;;;;;;;;;;;20.00;57.90;;;;;;5045740;28;20277;-60
2023/12/20 09:49:30;;;;;;;;;;;20.00;57.80;;;;;;5072474;28;19932;-60
2023/12/20 09:51:56;;;;;;;;;;;20.00;57.80;;;;;;5054878;28;19974;-60
2023/12/20 09:54:21;;;;;;;;;;;20.00;57.80;;;;;;5073044;28;20009;-60
2023/12/20 09:56:47;;;;;;;;;;;20.00;57.80;;;;;;5054676;28;20021;-59
2023/12/20 09:59:13;;;;;;;;;;;20.00;57.60;;;;;;5073002;28;19924;-59
2023/12/20 10:01:39;;;;;;;;;;;20.00;57.60;;;;;;5055402;28;20365;-59
2023/12/20 10:04:06;;;;;;;;;;;20.00;57.50;;;;;;5072030;28;19924;-59
2023/12/20 10:06:32;;;;;;;;;;;20.00;57.50;;;;;;5063627;28;19925;-59
2023/12/20 10:08:57;;;;;;;;;;;20.00;57.50;;;;;;5061246;28;20015;-59
2023/12/20 10:11:23;;;;;;;;;;;20.00;57.50;;;;;;5063313;28;20414;-60
2023/12/20 10:13:49;;;;;;;;;;;20.00;57.40;;;;;;5061830;28;19927;-60
2023/12/20 10:16:14;;;;;;;;;;;20.00;57.30;;;;;;5043612;28;20019;-60
2023/12/20 10:18:40;;;;;;;;;;;20.00;57.40;;;;;;5045121;28;19994;-60
2023/12/20 10:21:06;;;;;;;;;;;20.00;57.30;;;;;;5061098;28;20371;-60
2023/12/20 10:23:31;;;;;;;;;;;20.00;57.30;;;;;;5062300;28;19931;-60
2023/12/20 10:25:58;;;;;;;;;;;20.00;57.30;;;;;;5044458;28;19948;-60
2023/12/20 10:28:27;;;;;;;;;;;20.00;57.30;;;;;;5060997;28;19932;-60
2023/12/20 10:30:53;;;;;;;;;;;20.00;57.40;;;;;;5044127;28;19924;-61
2023/12/20 10:33:25;;;;;;;;;;;20.00;57.40;;;;;;5044909;28;20292;-60
2023/12/20 10:35:51;;;;;;;;;;;20.00;57.30;;;;;;5065931;28;20456;-60
2023/12/20 10:38:16;;;;;;;;;;;20.00;57.30;;;;;;5037483;28;19975;-60
2023/12/20 10:40:42;;;;;;;;;;;20.00;57.10;;;;;;5072661;28;20296;-60
2023/12/20 10:43:08;;;;;;;;;;;19.90;57.00;;;;;;5054605;28;20368;-60
2023/12/20 10:45:34;;;;;;;;;;;19.90;57.10;;;;;;5071864;28;19932;-60
2023/12/20 10:47:59;;;;;;;;;;;19.90;57.10;;;;;;5075523;28;20369;-60
2023/12/20 10:50:26;;;;;;;;;;;19.90;57.10;;;;;;5058516;28;19928;-60
2023/12/20 10:52:55;;;;;;;;;;;19.90;57.20;;;;;;5075533;28;19924;-60
2023/12/20 10:55:23;;;;;;;;;;;19.90;57.20;;;;;;5076498;28;19971;-60
2023/12/20 10:57:52;;;;;;;;;;;19.90;57.30;;;;;;5058515;28;19955;-60
2023/12/20 11:00:18;;;;;;;;;;;19.90;57.30;;;;;;5075803;28;19970;-60
2023/12/20 11:02:43;;;;;;;;;;;19.90;57.40;;;;;;5058259;28;19928;-59
2023/12/20 11:05:15;;;;;;;;;;;19.90;57.40;;;;;;5074962;28;19938;-61
2023/12/20 11:07:40;;;;;;;;;;;19.90;57.40;;;;;;5075955;28;20300;-60
2023/12/20 11:10:14;;;;;;;;;;;19.90;57.40;;;;;;5058019;28;19931;-60
2023/12/20 11:12:41;;;;;;;;;;;19.90;57.50;;;;;;5057719;28;19978;-60
2023/12/20 11:15:07;;;;;;;;;;;19.90;57.50;;;;;;5058168;28;19931;-60
2023/12/20 11:17:32;;;;;;;;;;;19.90;57.50;;;;;;5058092;28;19925;-60
2023/12/20 11:19:59;;;;;;;;;;;19.90;57.60;;;;;;5074550;28;19925;-60
2023/12/20 11:22:24;;;;;;;;;;;19.80;57.50;;;;;;5056557;28;19924;-61
2023/12/20 11:24:52;;;;;;;;;;;19.90;57.60;;;;;;5057530;28;19925;-59
2023/12/20 11:27:18;;;;;;;;;;;19.90;57.60;;;;;;5056798;28;19978;-60
2023/12/20 11:29:44;;;;;;;;;;;19.90;57.60;;;;;;5075498;28;20012;-60
2023/12/20 11:32:26;;;;;;;;;;;19.80;57.50;;;;;;5040754;28;19924;-60
2023/12/20 11:34:59;;;;;;;;;;;19.80;57.50;;;;;;5056601;28;19966;-60
2023/12/20 11:37:33;;;;;;;;;;;19.80;57.60;;;;;;5075855;28;19925;-60
2023/12/20 11:40:02;;;;;;;;;;;19.80;57.70;;;;;;5074906;28;19924;-60
2023/12/20 11:42:28;;;;;;;;;;;19.80;57.70;;;;;;5074517;28;19924;-59
2023/12/20 11:44:53;;;;;;;;;;;19.80;57.70;;;;;;5057274;28;19928;-58
2023/12/20 11:47:19;;;;;;;;;;;19.80;57.80;;;;;;5056740;28;20058;-58
2023/12/20 11:49:48;;;;;;;;;;;19.80;57.90;;;;;;5056107;28;19924;-58
2023/12/20 11:52:14;;;;;;;;;;;19.80;58.00;;;;;;5057065;28;19931;-59
2023/12/20 11:54:40;;;;;;;;;;;19.80;58.10;;;;;;5056362;28;19928;-58
2023/12/20 11:57:05;;;;;;;;;;;19.80;58.10;;;;;;5074815;28;20015;-58
2023/12/20 11:59:31;;;;;;;;;;;19.80;58.00;;;;;;5057277;28;19924;-58
2023/12/20 12:02:00;;;;;;;;;;;19.80;58.10;;;;;;5055948;28;20390;-58
2023/12/20 12:04:26;;;;;;;;;;;19.80;58.10;;;;;;5075160;28;19971;-59
2023/12/20 12:06:52;;;;;;;;;;;19.80;58.20;;;;;;5074650;28;19951;-60
2023/12/20 12:09:17;;;;;;;;;;;19.80;58.10;;;;;;5074097;28;19928;-59
2023/12/20 12:11:43;;;;;;;;;;;19.80;58.10;;;;;;5074547;28;19929;-59
2023/12/20 12:14:08;;;;;;;;;;;19.80;58.10;;;;;;5056694;28;19978;-59
2023/12/20 12:16:34;;;;;;;;;;;19.80;58.20;;;;;;5074320;28;19924;-59
2023/12/20 12:19:00;;;;;;;;;;;19.80;58.20;;;;;;5074647;28;20338;-59
2023/12/20 12:21:25;;;;;;;;;;;19.80;58.20;;;;;;5074853;28;19942;-59
2023/12/20 12:23:51;;;;;;;;;;;19.80;58.10;;;;;;5055636;28;19929;-59
2023/12/20 12:26:16;;;;;;;;;;;19.80;58.20;;;;;;5074548;28;19924;-59
2023/12/20 12:28:42;;;;;;;;;;;19.80;58.10;;;;;;5073868;28;19953;-59
2023/12/20 12:31:08;;;;;;;;;;;19.80;58.10;;;;;;5073240;28;19932;-59
2023/12/20 12:33:34;;;;;;;;;;;19.80;58.20;;;;;;5074680;28;19932;-59
2023/12/20 12:36:05;;;;;;;;;;;19.80;58.10;;;;;;5074156;28;19974;-58
2023/12/20 12:38:30;;;;;;;;;;;19.80;58.20;;;;;;5054423;28;19931;-60
2023/12/20 12:40:56;;;;;;;;;;;19.80;58.20;;;;;;5053807;28;19929;-59
2023/12/20 12:43:22;;;;;;;;;;;19.80;58.20;;;;;;5053474;28;19925;-59
2023/12/20 12:45:48;;;;;;;;;;;19.80;58.20;;;;;;5073222;28;20326;-59
2023/12/20 12:48:14;;;;;;;;;;;19.80;58.20;;;;;;5073824;28;19925;-59
2023/12/20 12:50:42;;;;;;;;;;;19.80;58.10;;;;;;5055808;28;19979;-57
2023/12/20 12:53:07;;;;;;;;;;;19.80;58.20;;;;;;5073379;28;19927;-58
2023/12/20 12:55:34;;;;;;;;;;;19.80;58.10;;;;;;5072056;28;20033;-58
2023/12/20 12:57:59;;;;;;;;;;;19.80;58.20;;;;;;5053641;28;19925;-59
2023/12/20 13:00:26;;;;;;;;;;;19.90;58.30;;;;;;5053840;28;19982;-58
2023/12/20 13:02:51;;;;;;;;;;;19.90;58.30;;;;;;5053874;28;20020;-59
2023/12/20 13:05:17;;;;;;;;;;;19.90;58.30;;;;;;5034811;28;20023;-59
2023/12/20 13:07:45;;;;;;;;;;;19.90;58.30;;;;;;5053563;28;20050;-59
2023/12/20 13:10:10;;;;;;;;;;;19.90;58.30;;;;;;5035269;28;19968;-57
2023/12/20 13:12:38;;;;;;;;;;;19.90;58.30;;;;;;5046668;28;20395;-57
2023/12/20 13:15:04;;;;;;;;;;;19.90;58.30;;;;;;5072756;28;19925;-57
2023/12/20 13:17:30;;;;;;;;;;;19.90;58.30;;;;;;5071752;28;19932;-58
2023/12/20 13:19:55;;;;;;;;;;;19.90;58.20;;;;;;5054334;28;19924;-58
2023/12/20 13:22:21;;;;;;;;;;;19.90;58.20;;;;;;5073257;28;20296;-57
2023/12/20 13:24:46;;;;;;;;;;;19.90;58.20;;;;;;5072668;28;20031;-58
2023/12/20 13:27:12;;;;;;;;;;;19.90;58.20;;;;;;5059608;28;19932;-57
2023/12/20 13:29:37;;;;;;;;;;;19.90;58.20;;;;;;5051567;28;19929;-57
2023/12/20 13:32:03;;;;;;;;;;;19.90;58.10;;;;;;5072952;28;19958;-57
2023/12/20 13:34:29;;;;;;;;;;;19.90;58.00;;;;;;5045179;28;19948;-58
2023/12/20 13:36:54;;;;;;;;;;;20.00;58.20;;;;;;5065755;28;20368;-58
2023/12/20 13:39:21;;;;;;;;;;;20.00;58.00;;;;;;5072578;28;19924;-58
2023/12/20 13:41:47;;;;;;;;;;;20.00;58.00;;;;;;5054016;28;20338;-58
2023/12/20 13:44:12;;;;;;;;;;;20.00;58.00;;;;;;5072779;28;19924;-57
2023/12/20 13:46:38;;;;;;;;;;;20.00;58.00;;;;;;5072856;28;19970;-58
2023/12/20 13:49:04;;;;;;;;;;;20.00;58.20;;;;;;5052864;28;20357;-57
2023/12/20 13:51:30;;;;;;;;;;;20.00;58.30;;;;;;5072258;28;19931;-57
2023/12/20 13:53:56;;;;;;;;;;;20.00;58.40;;;;;;5053639;28;19924;-57
2023/12/20 13:56:22;;;;;;;;;;;20.00;58.40;;;;;;5073298;28;19986;-57
2023/12/20 13:58:48;;;;;;;;;;;20.00;58.40;;;;;;5072983;28;19932;-57
2023/12/20 14:01:14;;;;;;;;;;;20.10;58.60;;;;;;5072138;28;19924;-57
2023/12/20 14:03:41;;;;;;;;;;;20.00;58.70;;;;;;5055277;28;19928;-57
2023/12/20 14:06:06;;;;;;;;;;;20.00;58.70;;;;;;5072453;28;20028;-58
2023/12/20 14:08:32;;;;;;;;;;;20.10;58.80;;;;;;5071978;28;19964;-58